createdAt,value
2018-09-02T00:01:27.252Z,91.80
2018-09-02T00:03:56.398Z,91.80
2018-09-02T00:06:25.797Z,91.70
2018-09-02T00:08:54.955Z,91.80
2018-09-02T00:11:24.101Z,91.80
2018-09-02T00:13:53.243Z,91.80
2018-09-02T00:16:22.409Z,91.80
2018-09-02T00:18:51.569Z,91.80
2018-09-02T00:21:20.741Z,91.80
2018-09-02T00:23:49.916Z,91.80
2018-09-02T00:26:19.048Z,91.80
2018-09-02T00:28:48.272Z,92.00
2018-09-02T00:31:17.413Z,92.00
2018-09-02T00:33:46.630Z,92.00
2018-09-02T00:36:15.789Z,92.00
2018-09-02T00:38:44.937Z,92.10
2018-09-02T00:41:14.097Z,92.10
2018-09-02T00:43:43.240Z,92.00
2018-09-02T00:46:12.449Z,92.00
2018-09-02T00:48:41.599Z,91.80
2018-09-02T00:51:10.769Z,91.70
2018-09-02T00:53:39.945Z,91.70
2018-09-02T00:56:09.108Z,91.70
2018-09-02T00:58:38.286Z,91.80
2018-09-02T01:01:07.457Z,91.70
2018-09-02T01:03:36.623Z,91.50
2018-09-02T01:06:06.004Z,91.40
2018-09-02T01:08:35.245Z,91.30
2018-09-02T01:11:04.433Z,91.40
2018-09-02T01:13:33.570Z,91.60
2018-09-02T01:16:02.705Z,92.00
2018-09-02T01:18:31.837Z,91.70
2018-09-02T01:21:00.980Z,91.70
2018-09-02T01:23:30.101Z,91.80
2018-09-02T01:25:59.301Z,91.90
2018-09-02T01:28:28.385Z,91.90
2018-09-02T01:30:57.517Z,91.90
2018-09-02T01:33:26.638Z,91.70
2018-09-02T01:35:55.828Z,91.70
2018-09-02T01:38:24.973Z,91.80
2018-09-02T01:40:54.109Z,91.70
2018-09-02T01:43:23.315Z,91.50
2018-09-02T01:45:52.437Z,91.60
2018-09-02T01:48:21.581Z,91.70
2018-09-02T01:50:50.725Z,91.70
2018-09-02T01:53:19.876Z,91.80
2018-09-02T01:55:49.010Z,91.90
2018-09-02T01:58:18.182Z,91.90
2018-09-02T02:00:47.402Z,92.00
2018-09-02T02:03:16.536Z,92.10
2018-09-02T02:05:45.677Z,92.20
2018-09-02T02:08:14.833Z,92.20
2018-09-02T02:10:43.961Z,92.20
2018-09-02T02:13:13.109Z,92.30
2018-09-02T02:15:42.240Z,92.10
2018-09-02T02:18:11.398Z,92.10
2018-09-02T02:20:40.528Z,92.20
2018-09-02T02:23:09.672Z,92.10
2018-09-02T02:25:38.814Z,92.00
2018-09-02T02:28:08.029Z,92.00
2018-09-02T02:30:37.182Z,92.10
2018-09-02T02:33:06.333Z,92.20
2018-09-02T02:35:35.528Z,92.20
2018-09-02T02:38:04.684Z,92.50
2018-09-02T02:40:33.812Z,92.50
2018-09-02T02:43:02.958Z,92.40
2018-09-02T02:45:32.102Z,92.30
2018-09-02T02:48:08.014Z,92.30
2018-09-02T02:50:37.153Z,92.30
2018-09-02T02:53:06.550Z,92.30
2018-09-02T02:55:36.214Z,92.30
2018-09-02T02:58:05.336Z,92.10
2018-09-02T03:00:34.489Z,92.30
2018-09-02T03:03:03.670Z,92.30
2018-09-02T03:05:32.866Z,92.40
2018-09-02T03:08:02.013Z,92.40
2018-09-02T03:10:31.129Z,92.30
2018-09-02T03:13:00.273Z,92.30
2018-09-02T03:15:29.413Z,92.30
2018-09-02T03:17:58.615Z,92.30
2018-09-02T03:20:27.738Z,92.20
2018-09-02T03:22:56.940Z,92.30
2018-09-02T03:25:26.073Z,92.40
2018-09-02T03:27:55.229Z,92.70
2018-09-02T03:30:24.398Z,92.40
2018-09-02T03:32:53.541Z,92.20
2018-09-02T03:35:22.728Z,92.30
2018-09-02T03:37:51.878Z,92.40
2018-09-02T03:40:21.052Z,92.40
2018-09-02T03:42:50.194Z,92.40
2018-09-02T03:45:19.429Z,92.40
2018-09-02T03:47:48.586Z,92.40
2018-09-02T03:50:17.753Z,92.40
2018-09-02T03:52:46.877Z,92.30
2018-09-02T03:55:16.022Z,92.20
2018-09-02T03:57:45.166Z,92.30
2018-09-02T04:00:14.303Z,92.30
2018-09-02T04:02:43.460Z,92.40
2018-09-02T04:05:12.595Z,92.40
2018-09-02T04:07:41.754Z,92.30
2018-09-02T04:10:10.908Z,92.40
2018-09-02T04:12:40.057Z,92.30
2018-09-02T04:15:09.225Z,92.20
2018-09-02T04:17:38.374Z,92.50
2018-09-02T04:20:08.214Z,92.20
2018-09-02T04:22:44.170Z,92.20
2018-09-02T04:25:13.305Z,92.20
2018-09-02T04:27:42.461Z,92.30
2018-09-02T04:30:11.665Z,92.30
2018-09-02T04:32:40.836Z,92.30
2018-09-02T04:35:10.010Z,92.20
2018-09-02T04:37:39.153Z,92.10
2018-09-02T04:40:08.329Z,92.10
2018-09-02T04:42:37.478Z,92.10
2018-09-02T04:45:06.682Z,92.10
2018-09-02T04:47:35.914Z,92.20
2018-09-02T04:50:16.405Z,92.00
2018-09-02T04:52:45.576Z,92.00
2018-09-02T04:55:14.729Z,91.90
2018-09-02T04:57:44.665Z,91.80
2018-09-02T05:00:13.902Z,91.70
2018-09-02T05:02:43.006Z,91.80
2018-09-02T05:05:15.017Z,91.70
2018-09-02T05:07:44.149Z,91.60
2018-09-02T05:10:13.310Z,91.80
2018-09-02T05:12:42.457Z,92.00
2018-09-02T05:15:11.841Z,92.50
2018-09-02T05:17:40.973Z,92.10
2018-09-02T05:20:10.174Z,92.20
2018-09-02T05:22:39.298Z,92.30
2018-09-02T05:25:08.434Z,92.10
2018-09-02T05:27:37.580Z,92.00
2018-09-02T05:30:07.165Z,92.00
2018-09-02T05:32:36.309Z,92.00
2018-09-02T05:35:06.233Z,92.10
2018-09-02T05:37:35.401Z,92.10
2018-09-02T05:40:04.634Z,92.30
2018-09-02T05:42:33.777Z,92.30
2018-09-02T05:45:02.927Z,92.40
2018-09-02T05:47:32.102Z,92.40
2018-09-02T05:50:01.279Z,92.40
2018-09-02T05:52:30.421Z,92.40
2018-09-02T05:54:59.545Z,92.20
2018-09-02T05:57:28.842Z,92.20
2018-09-02T05:59:57.918Z,92.40
2018-09-02T06:02:27.069Z,92.30
2018-09-02T06:04:56.217Z,92.30
2018-09-02T06:07:25.353Z,91.90
2018-09-02T06:09:54.509Z,91.80
2018-09-02T06:12:23.725Z,91.80
2018-09-02T06:14:52.927Z,91.70
2018-09-02T06:17:22.107Z,91.90
2018-09-02T06:19:51.285Z,92.00
2018-09-02T06:22:20.414Z,92.00
2018-09-02T06:24:49.582Z,92.00
2018-09-02T06:27:18.732Z,91.90
2018-09-02T06:29:47.885Z,92.10
2018-09-02T06:32:17.045Z,92.00
2018-09-02T06:34:46.213Z,92.00
2018-09-02T06:37:15.359Z,92.10
2018-09-02T06:39:44.538Z,91.70
2018-09-02T06:42:13.693Z,91.70
2018-09-02T06:44:42.890Z,91.60
2018-09-02T06:47:12.105Z,91.50
2018-09-02T06:49:41.254Z,91.60
2018-09-02T06:52:10.399Z,91.80
2018-09-02T06:54:39.554Z,91.80
2018-09-02T06:57:08.771Z,91.60
2018-09-02T06:59:37.893Z,91.60
2018-09-02T07:02:07.034Z,91.60
2018-09-02T07:04:36.179Z,91.30
2018-09-02T07:07:05.485Z,91.40
2018-09-02T07:09:34.615Z,91.30
2018-09-02T07:12:03.754Z,91.20
2018-09-02T07:14:32.914Z,91.10
2018-09-02T07:17:02.192Z,91.30
2018-09-02T07:19:31.352Z,91.50
2018-09-02T07:22:00.481Z,91.60
2018-09-02T07:24:29.650Z,91.60
2018-09-02T07:26:58.840Z,91.60
2018-09-02T07:29:27.977Z,91.30
2018-09-02T07:31:57.126Z,91.40
2018-09-02T07:34:26.240Z,91.20
2018-09-02T07:36:55.387Z,91.40
2018-09-02T07:39:24.546Z,91.40
2018-09-02T07:41:53.727Z,91.40
2018-09-02T07:44:22.845Z,91.60
2018-09-02T07:46:52.097Z,91.40
2018-09-02T07:49:21.221Z,91.30
2018-09-02T07:51:50.360Z,91.00
2018-09-02T07:54:19.560Z,91.10
2018-09-02T07:56:48.647Z,91.30
2018-09-02T07:59:17.813Z,91.20
2018-09-02T08:01:46.957Z,91.50
2018-09-02T08:04:16.081Z,91.10
2018-09-02T08:06:45.252Z,91.10
2018-09-02T08:09:14.394Z,90.90
2018-09-02T08:11:43.545Z,90.60
2018-09-02T08:14:12.664Z,90.70
2018-09-02T08:16:41.837Z,90.60
2018-09-02T08:19:10.970Z,90.60
2018-09-02T08:21:40.134Z,90.80
2018-09-02T08:24:09.277Z,90.90
2018-09-02T08:26:38.554Z,91.40
2018-09-02T08:29:07.662Z,91.40
2018-09-02T08:31:36.834Z,91.30
2018-09-02T08:34:06.093Z,91.20
2018-09-02T08:36:35.249Z,91.20
2018-09-02T08:39:05.991Z,90.90
2018-09-02T08:41:35.143Z,90.90
2018-09-02T08:44:04.317Z,90.60
2018-09-02T08:46:34.093Z,90.50
2018-09-02T08:49:03.261Z,90.20
2018-09-02T08:51:32.449Z,90.20
2018-09-02T08:54:01.599Z,90.50
2018-09-02T08:56:30.724Z,90.70
2018-09-02T08:58:59.873Z,91.00
2018-09-02T09:01:29.019Z,90.70
2018-09-02T09:03:58.132Z,90.10
2018-09-02T09:06:27.257Z,90.00
2018-09-02T09:08:56.766Z,90.10
2018-09-02T09:11:25.828Z,90.50
2018-09-02T09:13:55.447Z,90.70
2018-09-02T09:16:24.616Z,90.80
2018-09-02T09:18:54.160Z,91.10
2018-09-02T09:21:23.279Z,91.20
2018-09-02T09:23:52.462Z,90.60
2018-09-02T09:26:21.646Z,90.20
2018-09-02T09:28:50.821Z,89.90
2018-09-02T09:31:20.002Z,89.60
2018-09-02T09:33:49.174Z,89.90
2018-09-02T09:36:18.456Z,90.00
2018-09-02T09:38:47.621Z,90.10
2018-09-02T09:41:16.849Z,90.30
2018-09-02T09:43:46.022Z,90.20
2018-09-02T09:46:15.196Z,88.70
2018-09-02T09:48:44.434Z,88.60
2018-09-02T09:51:13.578Z,88.30
2018-09-02T09:53:43.017Z,88.10
2018-09-02T09:56:12.170Z,87.90
2018-09-02T09:58:41.368Z,88.80
2018-09-02T10:01:10.526Z,88.90
2018-09-02T10:03:39.749Z,89.00
2018-09-02T10:06:08.862Z,87.90
2018-09-02T10:08:38.050Z,88.10
2018-09-02T10:11:07.170Z,88.00
2018-09-02T10:13:36.293Z,88.70
2018-09-02T10:16:05.453Z,89.30
2018-09-02T10:18:34.575Z,89.90
2018-09-02T10:21:03.717Z,90.10
2018-09-02T10:23:32.837Z,90.00
2018-09-02T10:26:01.985Z,89.90
2018-09-02T10:28:31.113Z,89.80
2018-09-02T10:31:00.270Z,89.30
2018-09-02T10:33:29.463Z,89.10
2018-09-02T10:35:59.514Z,88.90
2018-09-02T10:38:28.630Z,88.00
2018-09-02T10:40:57.823Z,87.30
2018-09-02T10:43:26.912Z,87.40
2018-09-02T10:45:56.061Z,87.80
2018-09-02T10:48:25.338Z,89.00
2018-09-02T10:50:54.501Z,89.40
2018-09-02T10:53:23.849Z,90.00
2018-09-02T10:55:53.021Z,89.90
2018-09-02T10:58:22.173Z,89.70
2018-09-02T11:00:51.345Z,89.80
2018-09-02T11:03:20.516Z,90.00
2018-09-02T11:05:49.681Z,89.80
2018-09-02T11:08:18.841Z,89.90
2018-09-02T11:10:48.028Z,89.70
2018-09-02T11:13:17.262Z,90.00
2018-09-02T11:15:46.335Z,90.00
2018-09-02T11:18:15.498Z,90.10
2018-09-02T11:20:44.637Z,90.20
2018-09-02T11:23:13.807Z,90.40
2018-09-02T11:25:42.953Z,90.10
2018-09-02T11:28:12.121Z,90.10
2018-09-02T11:30:41.253Z,90.10
2018-09-02T11:33:10.397Z,90.00
2018-09-02T11:35:39.525Z,90.00
2018-09-02T11:38:08.673Z,90.40
2018-09-02T11:40:37.781Z,89.50
2018-09-02T11:43:07.151Z,89.30
2018-09-02T11:45:36.382Z,89.70
2018-09-02T11:48:05.538Z,89.00
2018-09-02T11:50:34.657Z,90.20
2018-09-02T11:53:03.854Z,89.20
2018-09-02T11:55:34.115Z,89.20
2018-09-02T11:58:03.234Z,87.70
2018-09-02T12:00:32.409Z,87.90
2018-09-02T12:03:01.590Z,87.90
2018-09-02T12:05:30.758Z,86.90
2018-09-02T12:08:00.235Z,86.90
2018-09-02T12:10:29.385Z,87.20
2018-09-02T12:12:58.613Z,87.50
2018-09-02T12:15:27.777Z,87.60
2018-09-02T12:17:56.925Z,87.60
2018-09-02T12:20:26.074Z,87.50
2018-09-02T12:22:55.229Z,85.60
2018-09-02T12:25:24.368Z,86.80
2018-09-02T12:27:53.564Z,86.80
2018-09-02T12:30:22.681Z,86.80
2018-09-02T12:32:51.907Z,86.80
2018-09-02T12:35:21.029Z,87.00
2018-09-02T12:37:50.177Z,87.60
2018-09-02T12:40:19.394Z,87.00
2018-09-02T12:42:48.539Z,88.60
2018-09-02T12:45:17.697Z,86.50
2018-09-02T12:47:46.936Z,86.40
2018-09-02T12:50:16.034Z,85.90
2018-09-02T12:52:45.182Z,85.70
2018-09-02T12:55:14.360Z,86.10
2018-09-02T12:57:43.576Z,86.00
2018-09-02T13:00:12.749Z,86.20
2018-09-02T13:02:41.912Z,86.10
2018-09-02T13:05:11.072Z,87.10
2018-09-02T13:07:40.200Z,85.50
2018-09-02T13:10:09.464Z,85.40
2018-09-02T13:12:38.621Z,83.60
2018-09-02T13:15:07.798Z,84.30
2018-09-02T13:17:37.032Z,84.40
2018-09-02T13:20:06.406Z,84.80
2018-09-02T13:22:35.541Z,85.50
2018-09-02T13:25:05.005Z,85.20
2018-09-02T13:27:34.129Z,85.00
2018-09-02T13:30:03.347Z,85.20
2018-09-02T13:32:32.479Z,84.70
2018-09-02T13:35:01.633Z,83.60
2018-09-02T13:37:30.893Z,83.50
2018-09-02T13:40:00.048Z,84.30
2018-09-02T13:42:29.188Z,84.70
2018-09-02T13:44:58.357Z,83.50
2018-09-02T13:47:27.544Z,82.60
2018-09-02T13:49:57.014Z,83.20
2018-09-02T13:52:26.379Z,82.50
2018-09-02T13:54:55.552Z,82.40
2018-09-02T13:57:24.742Z,83.50
2018-09-02T13:59:53.902Z,83.80
2018-09-02T14:02:23.078Z,84.20
2018-09-02T14:04:52.234Z,83.80
2018-09-02T14:07:21.401Z,82.90
2018-09-02T14:09:50.645Z,83.20
2018-09-02T14:12:19.782Z,83.50
2018-09-02T14:14:49.626Z,83.50
2018-09-02T14:17:18.842Z,83.90
2018-09-02T14:19:48.049Z,84.20
2018-09-02T14:22:17.130Z,84.90
2018-09-02T14:24:46.274Z,84.90
2018-09-02T14:27:15.430Z,84.10
2018-09-02T14:29:44.589Z,84.30
2018-09-02T14:32:13.777Z,85.60
2018-09-02T14:34:42.925Z,85.10
2018-09-02T14:37:12.122Z,85.10
2018-09-02T14:39:41.254Z,85.00
2018-09-02T14:42:10.469Z,85.10
2018-09-02T14:44:39.605Z,84.60
2018-09-02T14:47:08.767Z,85.60
2018-09-02T14:49:37.936Z,85.30
2018-09-02T14:52:07.321Z,85.70
2018-09-02T14:54:36.597Z,85.60
2018-09-02T14:57:05.783Z,85.90
2018-09-02T14:59:34.929Z,85.90
2018-09-02T15:02:04.097Z,86.20
2018-09-02T15:04:33.293Z,86.50
2018-09-02T15:07:02.429Z,86.40
2018-09-02T15:09:31.589Z,87.30
2018-09-02T15:12:00.733Z,86.00
2018-09-02T15:14:29.965Z,85.90
2018-09-02T15:16:59.133Z,85.40
2018-09-02T15:19:28.274Z,85.40
2018-09-02T15:21:57.425Z,85.70
2018-09-02T15:24:26.553Z,85.60
2018-09-02T15:26:55.721Z,85.70
2018-09-02T15:29:24.908Z,85.70
2018-09-02T15:31:54.057Z,85.60
2018-09-02T15:34:23.213Z,85.20
2018-09-02T15:36:52.384Z,85.70
2018-09-02T15:39:21.532Z,86.10
2018-09-02T15:41:50.665Z,86.00
2018-09-02T15:44:19.821Z,86.50
2018-09-02T15:46:48.959Z,86.30
2018-09-02T15:49:18.257Z,86.90
2018-09-02T15:51:47.364Z,87.20
2018-09-02T15:54:16.509Z,86.90
2018-09-02T15:56:45.660Z,86.60
2018-09-02T15:59:14.812Z,86.90
2018-09-02T16:01:43.974Z,86.30
2018-09-02T16:04:13.104Z,86.80
2018-09-02T16:06:42.258Z,87.30
2018-09-02T16:09:11.582Z,87.60
2018-09-02T16:11:40.710Z,88.20
2018-09-02T16:14:10.365Z,88.00
2018-09-02T16:16:39.886Z,88.00
2018-09-02T16:19:09.046Z,88.50
2018-09-02T16:21:38.339Z,88.60
2018-09-02T16:24:07.523Z,88.60
2018-09-02T16:26:36.657Z,88.60
2018-09-02T16:29:05.873Z,88.90
2018-09-02T16:31:35.078Z,89.00
2018-09-02T16:34:04.225Z,88.60
2018-09-02T16:36:33.353Z,88.60
2018-09-02T16:39:02.562Z,88.90
2018-09-02T16:41:31.794Z,88.60
2018-09-02T16:44:00.843Z,88.50
2018-09-02T16:46:30.008Z,88.70
2018-09-02T16:48:59.173Z,88.90
2018-09-02T16:51:28.374Z,88.30
2018-09-02T16:53:57.525Z,88.00
2018-09-02T16:56:26.694Z,88.30
2018-09-02T16:58:56.048Z,88.00
2018-09-02T17:01:25.240Z,88.10
2018-09-02T17:03:57.539Z,88.40
2018-09-02T17:06:26.701Z,88.80
2018-09-02T17:08:55.939Z,89.40
2018-09-02T17:11:25.105Z,88.90
2018-09-02T17:13:54.332Z,89.00
2018-09-02T17:16:23.505Z,89.00
2018-09-02T17:18:55.890Z,89.40
2018-09-02T17:21:25.077Z,89.90
2018-09-02T17:23:54.305Z,90.00
2018-09-02T17:26:23.503Z,89.40
2018-09-02T17:28:52.686Z,89.50
2018-09-02T17:31:21.881Z,89.40
2018-09-02T17:33:51.072Z,89.80
2018-09-02T17:36:20.264Z,89.90
2018-09-02T17:38:49.423Z,89.70
2018-09-02T17:41:18.606Z,89.70
2018-09-02T17:43:47.793Z,90.10
2018-09-02T17:46:19.462Z,89.70
2018-09-02T17:48:49.928Z,89.50
2018-09-02T17:51:19.940Z,89.10
2018-09-02T17:53:49.102Z,89.60
2018-09-02T17:56:18.237Z,89.90
2018-09-02T17:58:47.656Z,90.00
2018-09-02T18:01:16.798Z,90.10
2018-09-02T18:03:45.952Z,90.20
2018-09-02T18:06:15.169Z,90.30
2018-09-02T18:08:44.324Z,90.20
2018-09-02T18:11:13.466Z,90.20
2018-09-02T18:13:42.628Z,90.00
2018-09-02T18:16:11.850Z,90.00
2018-09-02T18:18:41.150Z,90.10
2018-09-02T18:21:10.330Z,90.20
2018-09-02T18:23:39.527Z,90.30
2018-09-02T18:26:08.974Z,90.30
2018-09-02T18:28:40.893Z,90.30
2018-09-02T18:31:10.175Z,90.20
2018-09-02T18:33:39.475Z,90.30
2018-09-02T18:36:08.726Z,90.40
2018-09-02T18:38:38.003Z,90.40
2018-09-02T18:41:07.145Z,90.40
2018-09-02T18:43:36.562Z,90.50
2018-09-02T18:46:06.021Z,90.50
2018-09-02T18:48:35.234Z,90.80
2018-09-02T18:51:04.469Z,90.50
2018-09-02T18:53:33.820Z,90.50
2018-09-02T18:56:03.096Z,90.90
2018-09-02T18:58:32.349Z,90.60
2018-09-02T19:01:01.603Z,90.80
2018-09-02T19:03:30.801Z,90.80
2018-09-02T19:06:00.065Z,90.80
2018-09-02T19:08:29.285Z,90.80
2018-09-02T19:10:58.521Z,90.80
2018-09-02T19:13:27.854Z,90.80
2018-09-02T19:15:57.335Z,90.80
2018-09-02T19:18:26.614Z,90.90
2018-09-02T19:20:55.805Z,91.10
2018-09-02T19:23:25.071Z,90.90
2018-09-02T19:25:54.416Z,91.10
2018-09-02T19:28:23.697Z,91.10
2018-09-02T19:30:52.907Z,91.00
2018-09-02T19:33:22.105Z,91.00
2018-09-02T19:35:51.377Z,91.00
2018-09-02T19:38:20.609Z,91.00
2018-09-02T19:40:49.897Z,91.10
2018-09-02T19:43:19.796Z,91.10
2018-09-02T19:45:49.132Z,91.20
2018-09-02T19:48:18.449Z,91.30
2018-09-02T19:50:47.634Z,91.30
2018-09-02T19:53:16.837Z,91.40
2018-09-02T19:55:46.042Z,91.50
2018-09-02T19:58:15.176Z,91.60
2018-09-02T20:00:44.434Z,91.60
2018-09-02T20:03:13.625Z,91.70
2018-09-02T20:05:42.881Z,91.80
2018-09-02T20:08:12.025Z,91.80
2018-09-02T20:10:41.269Z,91.80
2018-09-02T20:13:10.404Z,91.80
2018-09-02T20:15:39.545Z,91.80
2018-09-02T20:18:08.745Z,91.80
2018-09-02T20:20:37.914Z,91.90
2018-09-02T20:23:07.109Z,92.00
2018-09-02T20:25:36.244Z,91.90
2018-09-02T20:28:12.037Z,91.80
2018-09-02T20:30:41.205Z,91.80
2018-09-02T20:33:10.357Z,91.80
2018-09-02T20:35:39.521Z,91.90
2018-09-02T20:38:08.677Z,91.90
2018-09-02T20:40:37.814Z,91.80
2018-09-02T20:43:06.986Z,91.90
2018-09-02T20:45:36.161Z,91.90
2018-09-02T20:48:05.586Z,91.90
2018-09-02T20:50:34.769Z,91.80
2018-09-02T20:53:03.929Z,91.80
2018-09-02T20:55:33.062Z,91.80
2018-09-02T20:58:02.228Z,91.80
2018-09-02T21:00:31.401Z,91.60
2018-09-02T21:03:00.602Z,91.90
2018-09-02T21:05:29.738Z,92.00
2018-09-02T21:07:58.897Z,92.10
2018-09-02T21:10:28.025Z,92.10
2018-09-02T21:12:57.190Z,92.20
2018-09-02T21:15:26.321Z,92.20
2018-09-02T21:17:55.452Z,92.20
2018-09-02T21:20:24.600Z,92.30
2018-09-02T21:22:53.769Z,92.30
2018-09-02T21:25:22.949Z,92.30
2018-09-02T21:27:55.134Z,92.40
2018-09-02T21:30:24.285Z,92.30
2018-09-02T21:32:53.449Z,92.30
2018-09-02T21:35:22.623Z,92.40
2018-09-02T21:37:51.757Z,92.40
2018-09-02T21:40:20.929Z,92.50
2018-09-02T21:42:50.089Z,92.50
2018-09-02T21:45:19.268Z,92.50
2018-09-02T21:47:48.434Z,92.50
2018-09-02T21:50:17.637Z,92.60
2018-09-02T21:52:46.805Z,92.60
2018-09-02T21:55:16.004Z,92.60
2018-09-02T21:57:45.169Z,92.60
2018-09-02T22:00:16.109Z,92.70
2018-09-02T22:02:45.308Z,92.70
2018-09-02T22:05:15.421Z,92.50
2018-09-02T22:07:44.645Z,92.40
2018-09-02T22:10:13.780Z,92.50
2018-09-02T22:12:42.905Z,92.60
2018-09-02T22:15:12.146Z,92.70
2018-09-02T22:17:41.324Z,92.80
2018-09-02T22:20:10.453Z,92.90
2018-09-02T22:22:39.642Z,92.90
2018-09-02T22:25:09.389Z,92.90
2018-09-02T22:27:38.533Z,92.80
2018-09-02T22:30:08.773Z,92.80
2018-09-02T22:32:37.942Z,92.80
2018-09-02T22:35:07.101Z,92.80
2018-09-02T22:37:36.234Z,92.80
2018-09-02T22:40:05.390Z,92.90
2018-09-02T22:42:34.509Z,92.70
2018-09-02T22:45:03.669Z,92.70
2018-09-02T22:47:32.797Z,92.80
2018-09-02T22:50:01.945Z,92.90
2018-09-02T22:52:31.065Z,93.10
2018-09-02T22:55:00.213Z,93.00
2018-09-02T22:57:29.362Z,92.80
2018-09-02T22:59:58.522Z,92.90
2018-09-02T23:02:27.645Z,92.90
2018-09-02T23:04:56.830Z,92.90
2018-09-02T23:07:25.963Z,92.90
2018-09-02T23:09:55.113Z,92.90
2018-09-02T23:12:24.257Z,93.00
2018-09-02T23:14:53.399Z,92.90
2018-09-02T23:17:22.550Z,92.90
2018-09-02T23:19:51.721Z,93.00
2018-09-02T23:22:20.847Z,92.90
2018-09-02T23:24:50.018Z,92.90
2018-09-02T23:27:19.153Z,92.90
2018-09-02T23:29:48.462Z,93.30
2018-09-02T23:32:17.604Z,93.00
2018-09-02T23:34:47.754Z,92.90
2018-09-02T23:37:16.934Z,93.30
2018-09-02T23:39:46.069Z,93.00
2018-09-02T23:42:15.237Z,93.00
2018-09-02T23:44:44.358Z,93.00
2018-09-02T23:47:13.509Z,93.30
2018-09-02T23:49:42.653Z,93.10
2018-09-02T23:52:11.805Z,93.10
2018-09-02T23:54:40.923Z,93.30
2018-09-02T23:57:10.053Z,93.30
2018-09-02T23:59:39.228Z,93.40
